createdAt,value
2019-04-16T00:00:53.271Z,6.10
2019-04-16T00:04:08.037Z,6.10
2019-04-16T00:07:45.657Z,6.00
2019-04-16T00:11:22.536Z,6.00
2019-04-16T00:14:35.210Z,5.90
2019-04-16T00:17:44.358Z,5.90
2019-04-16T00:21:09.877Z,5.90
2019-04-16T00:24:29.213Z,5.80
2019-04-16T00:27:39.080Z,5.80
2019-04-16T00:30:47.647Z,5.70
2019-04-16T00:33:56.368Z,5.70
2019-04-16T00:37:06.489Z,5.70
2019-04-16T00:40:26.574Z,5.70
2019-04-16T00:43:37.111Z,5.70
2019-04-16T00:46:45.750Z,5.70
2019-04-16T00:49:57.706Z,5.70
2019-04-16T00:53:07.796Z,5.70
2019-04-16T00:56:16.159Z,5.60
2019-04-16T00:59:25.563Z,5.50
2019-04-16T01:02:34.301Z,5.40
2019-04-16T01:05:43.022Z,5.40
2019-04-16T01:08:54.907Z,5.40
2019-04-16T01:12:20.712Z,5.40
2019-04-16T01:15:31.885Z,5.40
2019-04-16T01:18:39.663Z,5.40
2019-04-16T01:21:48.283Z,5.30
2019-04-16T01:24:57.150Z,5.30
2019-04-16T01:28:08.997Z,5.30
2019-04-16T01:31:36.300Z,5.30
2019-04-16T01:35:09.527Z,5.20
2019-04-16T01:38:43.405Z,5.20
2019-04-16T01:41:53.273Z,5.10
2019-04-16T01:45:02.201Z,5.10
2019-04-16T01:48:11.009Z,5.10
2019-04-16T01:51:19.723Z,5.10
2019-04-16T01:54:28.297Z,5.00
2019-04-16T01:57:37.067Z,5.00
2019-04-16T02:00:45.754Z,5.00
2019-04-16T02:03:54.745Z,4.90
2019-04-16T02:07:14.798Z,5.00
2019-04-16T02:10:23.404Z,5.00
2019-04-16T02:13:32.112Z,5.00
2019-04-16T02:16:40.729Z,5.00
2019-04-16T02:19:49.784Z,5.00
2019-04-16T02:22:58.439Z,4.90
2019-04-16T02:26:07.008Z,4.90
2019-04-16T02:29:15.627Z,4.90
2019-04-16T02:32:24.397Z,4.90
2019-04-16T02:35:33.043Z,4.80
2019-04-16T02:38:46.351Z,4.90
2019-04-16T02:41:56.774Z,4.90
2019-04-16T02:45:02.391Z,4.80
2019-04-16T02:48:21.308Z,4.80
2019-04-16T02:51:54.807Z,4.80
2019-04-16T02:55:16.696Z,4.80
2019-04-16T02:58:34.334Z,4.70
2019-04-16T03:02:22.679Z,4.70
2019-04-16T03:05:49.269Z,4.60
2019-04-16T03:08:57.942Z,4.60
2019-04-16T03:12:06.528Z,4.60
2019-04-16T03:15:18.343Z,4.60
2019-04-16T03:18:32.855Z,4.50
2019-04-16T03:21:42.968Z,4.60
2019-04-16T03:24:51.617Z,4.50
2019-04-16T03:28:00.152Z,4.50
2019-04-16T03:31:09.836Z,4.50
2019-04-16T03:34:22.087Z,4.50
2019-04-16T03:37:30.234Z,4.50
2019-04-16T03:40:39.795Z,4.50
2019-04-16T03:43:48.549Z,4.50
2019-04-16T03:46:57.362Z,4.60
2019-04-16T03:50:06.424Z,4.50
2019-04-16T03:53:17.467Z,4.50
2019-04-16T03:56:27.493Z,4.40
2019-04-16T03:59:35.819Z,4.50
2019-04-16T04:02:44.607Z,4.40
2019-04-16T04:05:56.674Z,4.30
2019-04-16T04:09:06.705Z,4.40
2019-04-16T04:12:27.774Z,4.40
2019-04-16T04:15:35.939Z,4.40
2019-04-16T04:18:44.603Z,4.40
2019-04-16T04:21:53.728Z,4.40
2019-04-16T04:25:04.381Z,4.40
2019-04-16T04:28:18.451Z,4.40
2019-04-16T04:31:23.900Z,4.40
2019-04-16T04:34:32.634Z,4.30
2019-04-16T04:37:41.376Z,4.30
2019-04-16T04:40:50.835Z,4.30
2019-04-16T04:44:10.506Z,4.30
2019-04-16T04:47:20.133Z,4.30
2019-04-16T04:50:27.541Z,4.20
2019-04-16T04:53:36.215Z,4.30
2019-04-16T04:56:44.819Z,4.30
2019-04-16T04:59:53.468Z,4.30
2019-04-16T05:03:02.251Z,4.30
2019-04-16T05:06:37.537Z,4.30
2019-04-16T05:09:46.237Z,4.40
2019-04-16T05:12:54.935Z,4.30
2019-04-16T05:16:03.592Z,4.40
2019-04-16T05:19:14.817Z,4.40
2019-04-16T05:22:27.082Z,4.40
2019-04-16T05:25:46.119Z,4.50
2019-04-16T05:29:16.519Z,4.60
2019-04-16T05:32:25.649Z,4.60
2019-04-16T05:35:32.752Z,4.60
2019-04-16T05:38:41.608Z,4.70
2019-04-16T05:41:50.536Z,4.80
2019-04-16T05:45:02.493Z,5.00
2019-04-16T05:48:11.179Z,5.10
2019-04-16T05:51:20.307Z,5.40
2019-04-16T05:54:49.262Z,5.70
2019-04-16T05:57:59.279Z,6.00
2019-04-16T06:01:22.646Z,6.40
2019-04-16T06:04:50.055Z,6.60
2019-04-16T06:08:09.049Z,6.80
2019-04-16T06:11:35.559Z,6.80
2019-04-16T06:14:49.700Z,7.00
2019-04-16T06:18:19.253Z,7.10
2019-04-16T06:21:56.402Z,7.00
2019-04-16T06:25:49.592Z,7.10
2019-04-16T06:29:19.871Z,7.20
2019-04-16T06:32:39.800Z,7.30
2019-04-16T06:35:58.881Z,7.60
2019-04-16T06:39:40.845Z,7.70
2019-04-16T06:42:55.131Z,7.40
2019-04-16T06:46:29.940Z,7.40
2019-04-16T06:49:56.484Z,7.50
2019-04-16T06:53:30.856Z,7.50
2019-04-16T06:57:06.202Z,7.60
2019-04-16T07:01:05.812Z,7.80
2019-04-16T07:04:20.658Z,8.10
2019-04-16T07:08:01.657Z,8.30
2019-04-16T07:11:16.049Z,8.70
2019-04-16T07:14:25.887Z,9.00
2019-04-16T07:17:34.583Z,9.30
2019-04-16T07:20:45.742Z,9.50
2019-04-16T07:23:57.012Z,9.60
2019-04-16T07:27:03.812Z,9.70
2019-04-16T07:30:20.674Z,10.00
2019-04-16T07:33:38.497Z,10.30
2019-04-16T07:36:52.954Z,10.60
2019-04-16T07:40:29.570Z,11.10
2019-04-16T07:43:56.475Z,11.60
2019-04-16T07:47:11.138Z,11.80
2019-04-16T07:50:37.278Z,12.10
2019-04-16T07:54:41.164Z,12.50
2019-04-16T07:58:07.786Z,12.80
2019-04-16T08:01:16.598Z,13.00
2019-04-16T08:04:28.962Z,13.40
2019-04-16T08:07:35.612Z,13.90
2019-04-16T08:10:44.228Z,14.40
2019-04-16T08:13:52.962Z,14.60
2019-04-16T08:17:02.716Z,14.70
2019-04-16T08:20:21.601Z,14.40
2019-04-16T08:23:39.637Z,14.80
2019-04-16T08:26:48.194Z,15.10
2019-04-16T08:30:02.450Z,15.00
2019-04-16T08:33:10.351Z,14.70
2019-04-16T08:36:17.619Z,14.30
2019-04-16T08:39:26.252Z,14.50
2019-04-16T08:42:44.314Z,14.70
2019-04-16T08:45:55.316Z,14.80
2019-04-16T08:49:03.960Z,14.80
2019-04-16T08:52:12.556Z,14.90
2019-04-16T08:55:23.576Z,15.30
2019-04-16T08:58:31.482Z,15.70
2019-04-16T09:01:40.123Z,16.00
2019-04-16T09:04:48.816Z,16.40
2019-04-16T09:08:22.075Z,16.20
2019-04-16T09:11:35.046Z,16.50
2019-04-16T09:14:55.897Z,16.50
2019-04-16T09:18:20.819Z,16.60
2019-04-16T09:21:47.742Z,16.70
2019-04-16T09:25:01.377Z,16.70
2019-04-16T09:28:25.416Z,16.80
2019-04-16T09:31:38.540Z,16.80
2019-04-16T09:35:28.585Z,16.50
2019-04-16T09:38:48.730Z,16.20
2019-04-16T09:41:57.424Z,15.80
2019-04-16T09:45:08.260Z,16.00
2019-04-16T09:48:16.814Z,16.40
2019-04-16T09:51:26.339Z,16.80
2019-04-16T09:54:35.116Z,17.30
2019-04-16T09:57:43.736Z,17.90
2019-04-16T10:01:07.438Z,18.00
2019-04-16T10:04:18.229Z,18.00
2019-04-16T10:07:26.748Z,18.40
2019-04-16T10:10:35.363Z,18.90
2019-04-16T10:13:44.046Z,19.50
2019-04-16T10:16:52.709Z,19.60
2019-04-16T10:20:01.466Z,19.60
2019-04-16T10:23:16.123Z,19.90
2019-04-16T10:26:24.679Z,20.50
2019-04-16T10:29:33.272Z,19.90
2019-04-16T10:32:42.112Z,20.30
2019-04-16T10:35:50.763Z,20.40
2019-04-16T10:39:16.665Z,20.50
2019-04-16T10:42:49.524Z,20.60
2019-04-16T10:46:22.820Z,21.00
2019-04-16T10:49:59.699Z,21.50
2019-04-16T10:53:47.933Z,21.40
2019-04-16T10:57:14.284Z,21.80
2019-04-16T11:00:30.515Z,21.90
2019-04-16T11:04:07.829Z,22.30
2019-04-16T11:07:35.473Z,22.70
2019-04-16T11:10:58.599Z,23.10
2019-04-16T11:14:07.295Z,23.30
2019-04-16T11:17:17.562Z,22.70
2019-04-16T11:20:26.792Z,23.10
2019-04-16T11:23:45.824Z,22.80
2019-04-16T11:26:54.458Z,23.40
2019-04-16T11:30:03.845Z,23.20
2019-04-16T11:33:33.570Z,23.60
2019-04-16T11:36:42.199Z,23.80
2019-04-16T11:39:50.909Z,22.70
2019-04-16T11:42:59.592Z,22.00
2019-04-16T11:46:08.135Z,22.20
2019-04-16T11:49:16.801Z,23.10
2019-04-16T11:52:25.562Z,23.60
2019-04-16T11:55:34.215Z,23.40
2019-04-16T11:58:47.684Z,22.80
2019-04-16T12:02:24.287Z,23.20
2019-04-16T12:05:47.199Z,23.40
2019-04-16T12:09:14.921Z,23.40
2019-04-16T12:12:31.890Z,23.60
2019-04-16T12:16:14.619Z,23.70
2019-04-16T12:19:44.778Z,24.00
2019-04-16T12:23:04.870Z,23.40
2019-04-16T12:26:31.210Z,24.00
2019-04-16T12:29:50.415Z,23.00
2019-04-16T12:33:16.749Z,23.10
2019-04-16T12:36:53.749Z,23.70
2019-04-16T12:40:27.479Z,24.60
2019-04-16T12:43:38.443Z,23.80
2019-04-16T12:47:04.473Z,23.90
2019-04-16T12:50:32.071Z,22.80
2019-04-16T12:54:05.675Z,22.70
2019-04-16T12:57:30.214Z,23.20
2019-04-16T13:00:46.529Z,23.30
2019-04-16T13:04:00.217Z,24.40
2019-04-16T13:07:14.876Z,23.90
2019-04-16T13:11:08.847Z,23.50
2019-04-16T13:14:37.788Z,23.70
2019-04-16T13:18:03.688Z,22.80
2019-04-16T13:21:23.894Z,22.50
2019-04-16T13:24:42.016Z,22.50
2019-04-16T13:27:51.707Z,21.90
2019-04-16T13:31:11.868Z,21.30
2019-04-16T13:34:20.542Z,20.80
2019-04-16T13:37:33.672Z,20.40
2019-04-16T13:40:41.483Z,20.00
2019-04-16T13:43:54.932Z,19.60
2019-04-16T13:47:04.003Z,19.10
2019-04-16T13:50:29.787Z,18.80
2019-04-16T13:54:01.811Z,18.50
2019-04-16T13:57:14.314Z,18.20
2019-04-16T14:00:29.232Z,18.20
2019-04-16T14:03:37.886Z,18.20
2019-04-16T14:06:46.490Z,17.90
2019-04-16T14:09:55.002Z,17.70
2019-04-16T14:13:14.348Z,17.60
2019-04-16T14:16:23.209Z,17.60
2019-04-16T14:19:34.794Z,17.40
2019-04-16T14:22:42.304Z,17.30
2019-04-16T14:26:01.045Z,17.20
2019-04-16T14:29:09.625Z,17.10
2019-04-16T14:32:18.404Z,17.10
2019-04-16T14:35:33.654Z,17.10
2019-04-16T14:38:44.490Z,17.10
2019-04-16T14:41:53.096Z,17.10
2019-04-16T14:45:10.712Z,17.00
2019-04-16T14:48:19.275Z,17.00
2019-04-16T14:51:45.106Z,17.10
2019-04-16T14:55:11.103Z,17.20
2019-04-16T14:58:47.365Z,17.10
2019-04-16T15:02:36.134Z,17.00
2019-04-16T15:06:25.983Z,16.90
2019-04-16T15:09:51.863Z,16.90
2019-04-16T15:13:49.342Z,16.80
2019-04-16T15:17:15.156Z,16.80
2019-04-16T15:21:22.014Z,16.80
2019-04-16T15:24:57.997Z,16.80
2019-04-16T15:28:12.448Z,16.70
2019-04-16T15:31:57.439Z,16.70
2019-04-16T15:35:07.722Z,16.80
2019-04-16T15:38:39.136Z,16.80
2019-04-16T15:42:04.948Z,16.80
2019-04-16T15:45:29.963Z,16.90
2019-04-16T15:48:57.535Z,16.80
2019-04-16T15:52:25.085Z,16.70
2019-04-16T15:55:47.010Z,16.70
2019-04-16T15:59:24.101Z,16.70
2019-04-16T16:03:05.265Z,16.70
2019-04-16T16:06:16.949Z,16.40
2019-04-16T16:09:42.640Z,16.30
2019-04-16T16:12:53.605Z,16.30
2019-04-16T16:16:17.668Z,16.30
2019-04-16T16:19:21.043Z,16.20
2019-04-16T16:22:39.831Z,16.20
2019-04-16T16:25:48.569Z,16.20
2019-04-16T16:28:57.149Z,16.20
2019-04-16T16:32:05.710Z,16.20
2019-04-16T16:35:16.749Z,16.20
2019-04-16T16:38:24.676Z,16.20
2019-04-16T16:41:33.439Z,16.10
2019-04-16T16:44:42.059Z,16.10
2019-04-16T16:47:50.754Z,16.10
2019-04-16T16:51:33.390Z,16.00
2019-04-16T16:55:01.847Z,16.00
2019-04-16T16:58:28.721Z,16.00
2019-04-16T17:02:08.804Z,15.90
2019-04-16T17:05:37.963Z,15.90
2019-04-16T17:08:46.510Z,15.90
2019-04-16T17:11:56.468Z,15.90
2019-04-16T17:15:08.627Z,15.90
2019-04-16T17:18:16.048Z,15.80
2019-04-16T17:21:24.658Z,15.80
2019-04-16T17:24:33.176Z,15.70
2019-04-16T17:27:51.214Z,15.70
2019-04-16T17:31:02.177Z,15.70
2019-04-16T17:34:10.874Z,15.60
2019-04-16T17:37:21.308Z,15.60
2019-04-16T17:40:43.640Z,15.50
2019-04-16T17:44:11.286Z,15.50
2019-04-16T17:47:50.529Z,15.40
2019-04-16T17:51:37.168Z,15.30
2019-04-16T17:55:36.854Z,15.20
2019-04-16T17:59:07.553Z,15.10
2019-04-16T18:02:33.730Z,15.10
2019-04-16T18:05:48.092Z,15.10
2019-04-16T18:09:20.968Z,15.00
2019-04-16T18:12:46.657Z,15.00
2019-04-16T18:16:04.237Z,15.00
2019-04-16T18:19:34.687Z,14.90
2019-04-16T18:22:48.036Z,14.80
2019-04-16T18:26:32.240Z,14.70
2019-04-16T18:30:11.876Z,14.70
2019-04-16T18:33:29.404Z,14.60
2019-04-16T18:36:42.515Z,14.50
2019-04-16T18:40:16.821Z,14.50
2019-04-16T18:43:43.141Z,14.40
2019-04-16T18:47:10.939Z,14.30
2019-04-16T18:50:26.095Z,14.30
2019-04-16T18:53:33.343Z,14.20
2019-04-16T18:56:41.879Z,14.10
2019-04-16T18:59:50.421Z,14.10
2019-04-16T19:03:37.034Z,14.10
2019-04-16T19:06:45.688Z,14.00
2019-04-16T19:09:54.288Z,13.90
2019-04-16T19:13:09.602Z,13.90
2019-04-16T19:16:13.089Z,13.80
2019-04-16T19:19:22.220Z,13.80
2019-04-16T19:22:31.433Z,13.70
2019-04-16T19:25:40.368Z,13.70
2019-04-16T19:28:59.853Z,13.60
2019-04-16T19:32:18.932Z,13.60
2019-04-16T19:35:27.518Z,13.50
2019-04-16T19:38:39.458Z,13.50
2019-04-16T19:41:46.336Z,13.50
2019-04-16T19:44:56.886Z,13.50
2019-04-16T19:48:05.756Z,13.40
2019-04-16T19:51:14.516Z,13.40
2019-04-16T19:54:23.686Z,13.30
2019-04-16T19:57:32.295Z,13.30
2019-04-16T20:00:40.798Z,13.20
2019-04-16T20:03:49.597Z,13.20
2019-04-16T20:07:00.875Z,13.10
2019-04-16T20:10:08.804Z,13.10
2019-04-16T20:13:17.545Z,13.10
2019-04-16T20:16:26.033Z,13.00
2019-04-16T20:19:36.574Z,13.00
2019-04-16T20:22:45.155Z,12.90
2019-04-16T20:26:04.244Z,12.80
2019-04-16T20:29:14.158Z,12.70
2019-04-16T20:32:23.412Z,12.70
2019-04-16T20:35:33.332Z,12.70
2019-04-16T20:38:44.137Z,12.60
2019-04-16T20:41:55.270Z,12.50
2019-04-16T20:45:13.789Z,12.50
2019-04-16T20:48:22.324Z,12.40
2019-04-16T20:51:33.546Z,12.40
2019-04-16T20:54:47.141Z,12.30
2019-04-16T20:57:58.663Z,12.30
2019-04-16T21:01:33.799Z,12.20
2019-04-16T21:04:32.713Z,12.10
2019-04-16T21:07:43.898Z,12.10
2019-04-16T21:10:51.567Z,12.00
2019-04-16T21:14:00.100Z,12.00
2019-04-16T21:17:08.598Z,11.90
2019-04-16T21:20:20.246Z,11.80
2019-04-16T21:23:27.693Z,11.70
2019-04-16T21:26:50.984Z,11.60
2019-04-16T21:29:56.934Z,11.50
2019-04-16T21:33:11.211Z,11.50
2019-04-16T21:36:41.374Z,11.50
2019-04-16T21:39:58.073Z,11.50
2019-04-16T21:43:08.221Z,11.40
2019-04-16T21:46:20.185Z,11.40
2019-04-16T21:49:38.365Z,11.40
2019-04-16T21:52:37.449Z,11.40
2019-04-16T21:55:56.129Z,11.20
2019-04-16T21:59:05.794Z,11.10
2019-04-16T22:02:19.786Z,11.10
2019-04-16T22:05:28.318Z,11.10
2019-04-16T22:08:36.892Z,11.00
2019-04-16T22:11:45.574Z,11.00
2019-04-16T22:15:04.579Z,10.90
2019-04-16T22:18:13.140Z,10.90
2019-04-16T22:21:21.742Z,10.80
2019-04-16T22:24:30.339Z,10.70
2019-04-16T22:27:39.689Z,10.70
2019-04-16T22:30:51.461Z,10.60
2019-04-16T22:33:59.363Z,10.60
2019-04-16T22:37:07.990Z,10.40
2019-04-16T22:40:54.971Z,10.40
2019-04-16T22:44:16.423Z,10.40
2019-04-16T22:47:27.600Z,10.40
2019-04-16T22:50:38.187Z,10.30
2019-04-16T22:53:49.522Z,10.30
2019-04-16T22:57:05.554Z,10.20
2019-04-16T23:00:44.167Z,10.10
2019-04-16T23:03:52.927Z,10.10
2019-04-16T23:07:00.550Z,10.10
2019-04-16T23:10:09.397Z,10.10
2019-04-16T23:13:18.180Z,10.00
2019-04-16T23:16:26.842Z,10.00
2019-04-16T23:19:35.471Z,10.00
2019-04-16T23:22:46.527Z,10.00
2019-04-16T23:25:59.039Z,9.90
2019-04-16T23:29:04.765Z,9.90
2019-04-16T23:32:13.585Z,9.90
2019-04-16T23:35:25.025Z,9.90
2019-04-16T23:38:33.903Z,9.80
2019-04-16T23:41:52.850Z,9.90
2019-04-16T23:45:11.043Z,9.80
2019-04-16T23:48:28.474Z,9.80
2019-04-16T23:51:44.756Z,9.70
2019-04-16T23:54:59.691Z,9.70
2019-04-16T23:58:21.896Z,9.70
